sensor_id;sensor_type;location;lat;lon;timestamp;P1;durP1;ratioP1;P2;durP2;ratioP2
11123;SDS011;5616;42.692;23.312;2023-12-29T00:00:58;62.07;;;43.40;;
11123;SDS011;5616;42.692;23.312;2023-12-29T00:03:25;62.30;;;43.03;;
11123;SDS011;5616;42.692;23.312;2023-12-29T00:05:53;61.93;;;42.03;;
11123;SDS011;5616;42.692;23.312;2023-12-29T00:08:19;73.93;;;45.50;;
11123;SDS011;5616;42.692;23.312;2023-12-29T00:10:46;61.93;;;43.63;;
11123;SDS011;5616;42.692;23.312;2023-12-29T00:13:13;61.00;;;43.47;;
11123;SDS011;5616;42.692;23.312;2023-12-29T00:15:39;62.67;;;42.63;;
11123;SDS011;5616;42.692;23.312;2023-12-29T00:18:07;62.13;;;41.67;;
11123;SDS011;5616;42.692;23.312;2023-12-29T00:20:34;62.03;;;42.87;;
11123;SDS011;5616;42.692;23.312;2023-12-29T00:23:03;61.77;;;41.03;;
11123;SDS011;5616;42.692;23.312;2023-12-29T00:25:30;63.23;;;42.13;;
11123;SDS011;5616;42.692;23.312;2023-12-29T00:27:57;64.23;;;42.97;;
11123;SDS011;5616;42.692;23.312;2023-12-29T00:30:23;54.47;;;38.03;;
11123;SDS011;5616;42.692;23.312;2023-12-29T00:32:50;52.73;;;38.10;;
11123;SDS011;5616;42.692;23.312;2023-12-29T00:35:17;60.67;;;40.53;;
11123;SDS011;5616;42.692;23.312;2023-12-29T00:37:43;60.63;;;40.43;;
11123;SDS011;5616;42.692;23.312;2023-12-29T00:40:12;60.93;;;41.33;;
11123;SDS011;5616;42.692;23.312;2023-12-29T00:42:39;64.63;;;43.47;;
11123;SDS011;5616;42.692;23.312;2023-12-29T00:45:06;63.80;;;42.60;;
11123;SDS011;5616;42.692;23.312;2023-12-29T00:47:34;62.70;;;42.80;;
11123;SDS011;5616;42.692;23.312;2023-12-29T00:50:00;59.00;;;41.00;;
11123;SDS011;5616;42.692;23.312;2023-12-29T00:52:27;61.23;;;41.43;;
11123;SDS011;5616;42.692;23.312;2023-12-29T00:54:54;61.30;;;47.33;;
11123;SDS011;5616;42.692;23.312;2023-12-29T00:57:22;57.97;;;41.47;;
11123;SDS011;5616;42.692;23.312;2023-12-29T00:59:49;60.70;;;42.23;;
11123;SDS011;5616;42.692;23.312;2023-12-29T01:02:16;65.73;;;44.83;;
11123;SDS011;5616;42.692;23.312;2023-12-29T01:04:42;58.57;;;43.47;;
11123;SDS011;5616;42.692;23.312;2023-12-29T01:07:09;69.87;;;45.97;;
11123;SDS011;5616;42.692;23.312;2023-12-29T01:09:37;68.53;;;45.23;;
11123;SDS011;5616;42.692;23.312;2023-12-29T01:12:05;66.57;;;46.40;;
11123;SDS011;5616;42.692;23.312;2023-12-29T01:14:33;64.60;;;43.63;;
11123;SDS011;5616;42.692;23.312;2023-12-29T01:17:00;71.23;;;46.90;;
11123;SDS011;5616;42.692;23.312;2023-12-29T01:19:27;74.03;;;46.57;;
11123;SDS011;5616;42.692;23.312;2023-12-29T01:21:53;69.60;;;45.97;;
11123;SDS011;5616;42.692;23.312;2023-12-29T01:24:21;71.63;;;46.53;;
11123;SDS011;5616;42.692;23.312;2023-12-29T01:26:47;66.23;;;46.93;;
11123;SDS011;5616;42.692;23.312;2023-12-29T01:29:14;67.63;;;46.23;;
11123;SDS011;5616;42.692;23.312;2023-12-29T01:31:42;69.18;;;50.60;;
11123;SDS011;5616;42.692;23.312;2023-12-29T01:34:09;67.63;;;45.87;;
11123;SDS011;5616;42.692;23.312;2023-12-29T01:36:36;66.80;;;44.93;;
11123;SDS011;5616;42.692;23.312;2023-12-29T01:39:02;67.40;;;45.67;;
11123;SDS011;5616;42.692;23.312;2023-12-29T01:41:29;65.90;;;44.77;;
11123;SDS011;5616;42.692;23.312;2023-12-29T01:46:46;66.80;;;43.60;;
11123;SDS011;5616;42.692;23.312;2023-12-29T01:49:15;66.20;;;44.53;;
11123;SDS011;5616;42.692;23.312;2023-12-29T01:51:43;60.37;;;43.30;;
11123;SDS011;5616;42.692;23.312;2023-12-29T01:54:10;67.73;;;45.00;;
11123;SDS011;5616;42.692;23.312;2023-12-29T01:56:40;63.43;;;44.47;;
11123;SDS011;5616;42.692;23.312;2023-12-29T01:59:08;67.57;;;45.20;;
11123;SDS011;5616;42.692;23.312;2023-12-29T02:01:36;67.40;;;44.03;;
11123;SDS011;5616;42.692;23.312;2023-12-29T02:04:06;62.87;;;43.93;;
11123;SDS011;5616;42.692;23.312;2023-12-29T02:06:33;62.37;;;43.13;;
11123;SDS011;5616;42.692;23.312;2023-12-29T02:09:01;67.60;;;44.27;;
11123;SDS011;5616;42.692;23.312;2023-12-29T02:11:28;64.73;;;43.63;;
11123;SDS011;5616;42.692;23.312;2023-12-29T02:13:56;60.17;;;42.77;;
11123;SDS011;5616;42.692;23.312;2023-12-29T02:16:25;59.17;;;42.20;;
11123;SDS011;5616;42.692;23.312;2023-12-29T02:19:00;56.87;;;42.33;;
11123;SDS011;5616;42.692;23.312;2023-12-29T02:21:31;60.80;;;42.77;;
11123;SDS011;5616;42.692;23.312;2023-12-29T02:23:58;61.47;;;40.57;;
11123;SDS011;5616;42.692;23.312;2023-12-29T02:26:26;61.17;;;42.40;;
11123;SDS011;5616;42.692;23.312;2023-12-29T02:28:59;59.53;;;41.33;;
11123;SDS011;5616;42.692;23.312;2023-12-29T02:31:30;57.67;;;41.50;;
11123;SDS011;5616;42.692;23.312;2023-12-29T02:34:01;60.83;;;42.27;;
11123;SDS011;5616;42.692;23.312;2023-12-29T02:36:31;63.07;;;43.13;;
11123;SDS011;5616;42.692;23.312;2023-12-29T02:38:59;60.23;;;43.00;;
11123;SDS011;5616;42.692;23.312;2023-12-29T02:41:27;73.97;;;49.30;;
11123;SDS011;5616;42.692;23.312;2023-12-29T02:43:54;74.63;;;50.77;;
11123;SDS011;5616;42.692;23.312;2023-12-29T02:46:21;79.97;;;58.08;;
11123;SDS011;5616;42.692;23.312;2023-12-29T02:48:47;76.97;;;51.93;;
11123;SDS011;5616;42.692;23.312;2023-12-29T02:51:14;73.30;;;49.97;;
11123;SDS011;5616;42.692;23.312;2023-12-29T02:53:41;67.10;;;49.57;;
11123;SDS011;5616;42.692;23.312;2023-12-29T02:56:08;70.95;;;54.55;;
11123;SDS011;5616;42.692;23.312;2023-12-29T02:58:36;69.17;;;46.90;;
11123;SDS011;5616;42.692;23.312;2023-12-29T03:01:03;62.07;;;45.13;;
11123;SDS011;5616;42.692;23.312;2023-12-29T03:03:30;67.33;;;44.27;;
11123;SDS011;5616;42.692;23.312;2023-12-29T03:05:56;64.03;;;42.00;;
11123;SDS011;5616;42.692;23.312;2023-12-29T03:08:23;63.00;;;41.10;;
11123;SDS011;5616;42.692;23.312;2023-12-29T03:10:50;57.17;;;39.97;;
11123;SDS011;5616;42.692;23.312;2023-12-29T03:13:16;58.90;;;40.30;;
11123;SDS011;5616;42.692;23.312;2023-12-29T03:15:44;53.20;;;37.40;;
11123;SDS011;5616;42.692;23.312;2023-12-29T03:18:11;53.20;;;37.50;;
11123;SDS011;5616;42.692;23.312;2023-12-29T03:20:39;50.43;;;35.57;;
11123;SDS011;5616;42.692;23.312;2023-12-29T03:23:05;53.77;;;35.10;;
11123;SDS011;5616;42.692;23.312;2023-12-29T03:25:32;52.37;;;35.33;;
11123;SDS011;5616;42.692;23.312;2023-12-29T03:27:59;52.10;;;35.47;;
11123;SDS011;5616;42.692;23.312;2023-12-29T03:30:25;51.90;;;35.20;;
11123;SDS011;5616;42.692;23.312;2023-12-29T03:32:54;51.03;;;34.90;;
11123;SDS011;5616;42.692;23.312;2023-12-29T03:35:20;50.40;;;34.43;;
11123;SDS011;5616;42.692;23.312;2023-12-29T03:37:47;50.27;;;35.10;;
11123;SDS011;5616;42.692;23.312;2023-12-29T03:40:14;52.63;;;34.83;;
11123;SDS011;5616;42.692;23.312;2023-12-29T03:42:41;51.40;;;36.63;;
11123;SDS011;5616;42.692;23.312;2023-12-29T03:45:08;56.40;;;36.60;;
11123;SDS011;5616;42.692;23.312;2023-12-29T03:47:35;55.00;;;37.27;;
11123;SDS011;5616;42.692;23.312;2023-12-29T03:50:05;52.13;;;36.30;;
11123;SDS011;5616;42.692;23.312;2023-12-29T03:52:33;53.57;;;37.20;;
11123;SDS011;5616;42.692;23.312;2023-12-29T03:54:59;51.30;;;35.87;;
11123;SDS011;5616;42.692;23.312;2023-12-29T03:57:26;56.47;;;38.23;;
11123;SDS011;5616;42.692;23.312;2023-12-29T03:59:54;54.27;;;37.30;;
11123;SDS011;5616;42.692;23.312;2023-12-29T04:02:21;56.27;;;37.20;;
11123;SDS011;5616;42.692;23.312;2023-12-29T04:04:48;52.37;;;36.60;;
11123;SDS011;5616;42.692;23.312;2023-12-29T04:07:16;53.67;;;36.70;;
11123;SDS011;5616;42.692;23.312;2023-12-29T04:09:42;51.53;;;37.53;;
11123;SDS011;5616;42.692;23.312;2023-12-29T04:12:09;56.33;;;37.63;;
11123;SDS011;5616;42.692;23.312;2023-12-29T04:14:36;54.87;;;37.03;;
11123;SDS011;5616;42.692;23.312;2023-12-29T04:17:03;50.67;;;37.17;;
11123;SDS011;5616;42.692;23.312;2023-12-29T04:19:40;50.63;;;35.77;;
11123;SDS011;5616;42.692;23.312;2023-12-29T04:22:07;55.53;;;37.67;;
11123;SDS011;5616;42.692;23.312;2023-12-29T04:24:36;52.80;;;36.70;;
11123;SDS011;5616;42.692;23.312;2023-12-29T04:27:03;50.60;;;36.10;;
11123;SDS011;5616;42.692;23.312;2023-12-29T04:29:31;56.03;;;37.90;;
11123;SDS011;5616;42.692;23.312;2023-12-29T04:31:57;55.00;;;37.03;;
11123;SDS011;5616;42.692;23.312;2023-12-29T04:34:24;53.90;;;38.50;;
11123;SDS011;5616;42.692;23.312;2023-12-29T04:36:51;55.23;;;39.53;;
11123;SDS011;5616;42.692;23.312;2023-12-29T04:39:18;56.77;;;37.90;;
11123;SDS011;5616;42.692;23.312;2023-12-29T04:41:46;52.57;;;37.67;;
11123;SDS011;5616;42.692;23.312;2023-12-29T04:44:12;59.27;;;37.97;;
11123;SDS011;5616;42.692;23.312;2023-12-29T04:46:39;57.23;;;43.23;;
11123;SDS011;5616;42.692;23.312;2023-12-29T04:49:06;54.13;;;37.27;;
11123;SDS011;5616;42.692;23.312;2023-12-29T04:51:32;47.20;;;34.93;;
11123;SDS011;5616;42.692;23.312;2023-12-29T04:53:59;51.00;;;34.10;;
11123;SDS011;5616;42.692;23.312;2023-12-29T04:56:26;46.03;;;33.60;;
11123;SDS011;5616;42.692;23.312;2023-12-29T04:58:54;50.57;;;34.97;;
11123;SDS011;5616;42.692;23.312;2023-12-29T05:01:21;48.22;;;35.58;;
11123;SDS011;5616;42.692;23.312;2023-12-29T05:03:48;50.37;;;33.97;;
11123;SDS011;5616;42.692;23.312;2023-12-29T05:06:15;49.33;;;38.03;;
11123;SDS011;5616;42.692;23.312;2023-12-29T05:08:41;44.30;;;32.63;;
11123;SDS011;5616;42.692;23.312;2023-12-29T05:11:08;48.53;;;32.57;;
11123;SDS011;5616;42.692;23.312;2023-12-29T05:13:35;42.53;;;30.50;;
11123;SDS011;5616;42.692;23.312;2023-12-29T05:16:03;46.37;;;31.87;;
11123;SDS011;5616;42.692;23.312;2023-12-29T05:18:30;44.00;;;30.57;;
11123;SDS011;5616;42.692;23.312;2023-12-29T05:20:57;40.93;;;30.70;;
11123;SDS011;5616;42.692;23.312;2023-12-29T05:23:23;41.47;;;29.57;;
11123;SDS011;5616;42.692;23.312;2023-12-29T05:25:51;40.80;;;29.57;;
11123;SDS011;5616;42.692;23.312;2023-12-29T05:28:18;46.60;;;30.33;;
11123;SDS011;5616;42.692;23.312;2023-12-29T05:30:45;41.30;;;29.07;;
11123;SDS011;5616;42.692;23.312;2023-12-29T05:33:13;48.63;;;30.17;;
11123;SDS011;5616;42.692;23.312;2023-12-29T05:35:40;48.00;;;31.67;;
11123;SDS011;5616;42.692;23.312;2023-12-29T05:38:06;43.53;;;31.10;;
11123;SDS011;5616;42.692;23.312;2023-12-29T05:40:33;49.83;;;31.00;;
11123;SDS011;5616;42.692;23.312;2023-12-29T05:43:00;37.13;;;28.87;;
11123;SDS011;5616;42.692;23.312;2023-12-29T05:45:27;46.93;;;30.77;;
11123;SDS011;5616;42.692;23.312;2023-12-29T05:47:53;50.53;;;31.73;;
11123;SDS011;5616;42.692;23.312;2023-12-29T05:50:21;45.40;;;30.57;;
11123;SDS011;5616;42.692;23.312;2023-12-29T05:52:48;46.33;;;30.70;;
11123;SDS011;5616;42.692;23.312;2023-12-29T05:55:17;43.33;;;29.90;;
11123;SDS011;5616;42.692;23.312;2023-12-29T05:57:44;45.80;;;30.10;;
11123;SDS011;5616;42.692;23.312;2023-12-29T06:00:11;47.50;;;31.13;;
11123;SDS011;5616;42.692;23.312;2023-12-29T06:02:39;44.73;;;30.90;;
11123;SDS011;5616;42.692;23.312;2023-12-29T06:05:07;44.50;;;30.90;;
11123;SDS011;5616;42.692;23.312;2023-12-29T06:07:35;46.00;;;30.07;;
11123;SDS011;5616;42.692;23.312;2023-12-29T06:10:02;42.43;;;29.97;;
11123;SDS011;5616;42.692;23.312;2023-12-29T06:12:30;41.20;;;30.50;;
11123;SDS011;5616;42.692;23.312;2023-12-29T06:14:57;47.30;;;30.13;;
11123;SDS011;5616;42.692;23.312;2023-12-29T06:17:23;44.53;;;30.93;;
11123;SDS011;5616;42.692;23.312;2023-12-29T06:19:50;45.50;;;32.23;;
11123;SDS011;5616;42.692;23.312;2023-12-29T06:22:18;45.80;;;31.37;;
11123;SDS011;5616;42.692;23.312;2023-12-29T06:24:46;44.03;;;29.60;;
11123;SDS011;5616;42.692;23.312;2023-12-29T06:27:12;43.50;;;30.50;;
11123;SDS011;5616;42.692;23.312;2023-12-29T06:29:40;48.03;;;31.10;;
11123;SDS011;5616;42.692;23.312;2023-12-29T06:32:07;40.97;;;28.80;;
11123;SDS011;5616;42.692;23.312;2023-12-29T06:34:34;40.93;;;29.10;;
11123;SDS011;5616;42.692;23.312;2023-12-29T06:37:01;46.80;;;30.47;;
11123;SDS011;5616;42.692;23.312;2023-12-29T06:39:27;45.20;;;30.73;;
11123;SDS011;5616;42.692;23.312;2023-12-29T06:41:55;49.03;;;32.43;;
11123;SDS011;5616;42.692;23.312;2023-12-29T06:44:22;46.43;;;31.87;;
11123;SDS011;5616;42.692;23.312;2023-12-29T06:46:49;47.17;;;32.93;;
11123;SDS011;5616;42.692;23.312;2023-12-29T06:49:16;46.30;;;32.97;;
11123;SDS011;5616;42.692;23.312;2023-12-29T06:51:42;49.23;;;32.10;;
11123;SDS011;5616;42.692;23.312;2023-12-29T06:54:09;46.73;;;32.57;;
11123;SDS011;5616;42.692;23.312;2023-12-29T06:56:36;52.73;;;33.63;;
11123;SDS011;5616;42.692;23.312;2023-12-29T06:59:04;47.40;;;31.20;;
11123;SDS011;5616;42.692;23.312;2023-12-29T07:01:32;43.70;;;31.83;;
11123;SDS011;5616;42.692;23.312;2023-12-29T07:03:59;49.50;;;31.83;;
11123;SDS011;5616;42.692;23.312;2023-12-29T07:06:26;50.90;;;33.27;;
11123;SDS011;5616;42.692;23.312;2023-12-29T07:08:52;48.00;;;32.87;;
11123;SDS011;5616;42.692;23.312;2023-12-29T07:11:19;47.27;;;33.00;;
11123;SDS011;5616;42.692;23.312;2023-12-29T07:13:47;51.67;;;33.90;;
11123;SDS011;5616;42.692;23.312;2023-12-29T07:16:15;47.10;;;34.03;;
11123;SDS011;5616;42.692;23.312;2023-12-29T07:18:44;50.53;;;34.90;;
11123;SDS011;5616;42.692;23.312;2023-12-29T07:21:11;51.10;;;35.87;;
11123;SDS011;5616;42.692;23.312;2023-12-29T07:23:38;52.17;;;34.27;;
11123;SDS011;5616;42.692;23.312;2023-12-29T07:26:05;57.47;;;36.27;;
11123;SDS011;5616;42.692;23.312;2023-12-29T07:28:32;52.17;;;35.63;;
11123;SDS011;5616;42.692;23.312;2023-12-29T07:30:59;48.83;;;35.43;;
11123;SDS011;5616;42.692;23.312;2023-12-29T07:33:27;51.67;;;36.43;;
11123;SDS011;5616;42.692;23.312;2023-12-29T07:35:54;49.97;;;34.90;;
11123;SDS011;5616;42.692;23.312;2023-12-29T07:38:21;49.10;;;34.20;;
11123;SDS011;5616;42.692;23.312;2023-12-29T07:40:48;51.23;;;33.77;;
11123;SDS011;5616;42.692;23.312;2023-12-29T07:43:14;52.23;;;33.37;;
11123;SDS011;5616;42.692;23.312;2023-12-29T07:45:41;49.37;;;36.20;;
11123;SDS011;5616;42.692;23.312;2023-12-29T07:48:08;56.50;;;36.93;;
11123;SDS011;5616;42.692;23.312;2023-12-29T07:50:36;58.67;;;36.03;;
11123;SDS011;5616;42.692;23.312;2023-12-29T07:53:03;54.47;;;35.83;;
11123;SDS011;5616;42.692;23.312;2023-12-29T07:55:31;50.57;;;34.77;;
11123;SDS011;5616;42.692;23.312;2023-12-29T07:57:58;51.33;;;35.67;;
11123;SDS011;5616;42.692;23.312;2023-12-29T08:00:24;53.27;;;34.07;;
11123;SDS011;5616;42.692;23.312;2023-12-29T08:02:51;54.23;;;35.37;;
11123;SDS011;5616;42.692;23.312;2023-12-29T08:05:18;58.17;;;35.80;;
11123;SDS011;5616;42.692;23.312;2023-12-29T08:07:47;56.03;;;35.87;;
11123;SDS011;5616;42.692;23.312;2023-12-29T08:10:13;59.60;;;36.80;;
11123;SDS011;5616;42.692;23.312;2023-12-29T08:12:40;55.50;;;36.17;;
11123;SDS011;5616;42.692;23.312;2023-12-29T08:15:07;52.60;;;36.07;;
11123;SDS011;5616;42.692;23.312;2023-12-29T08:17:34;54.90;;;38.30;;
11123;SDS011;5616;42.692;23.312;2023-12-29T08:20:01;55.70;;;37.63;;
11123;SDS011;5616;42.692;23.312;2023-12-29T08:22:29;60.27;;;38.30;;
11123;SDS011;5616;42.692;23.312;2023-12-29T08:24:58;58.00;;;37.83;;
11123;SDS011;5616;42.692;23.312;2023-12-29T08:27:25;53.20;;;35.90;;
11123;SDS011;5616;42.692;23.312;2023-12-29T08:29:52;53.33;;;36.67;;
11123;SDS011;5616;42.692;23.312;2023-12-29T08:32:19;50.83;;;35.07;;
11123;SDS011;5616;42.692;23.312;2023-12-29T08:34:46;57.73;;;36.17;;
11123;SDS011;5616;42.692;23.312;2023-12-29T08:37:12;55.93;;;36.80;;
11123;SDS011;5616;42.692;23.312;2023-12-29T08:39:45;54.70;;;37.10;;
11123;SDS011;5616;42.692;23.312;2023-12-29T08:42:13;58.05;;;42.67;;
11123;SDS011;5616;42.692;23.312;2023-12-29T08:44:40;54.37;;;38.57;;
11123;SDS011;5616;42.692;23.312;2023-12-29T08:47:07;57.97;;;38.57;;
11123;SDS011;5616;42.692;23.312;2023-12-29T08:49:35;57.90;;;37.23;;
11123;SDS011;5616;42.692;23.312;2023-12-29T08:52:02;61.50;;;40.67;;
11123;SDS011;5616;42.692;23.312;2023-12-29T08:54:29;59.20;;;38.97;;
11123;SDS011;5616;42.692;23.312;2023-12-29T08:56:56;59.20;;;39.00;;
11123;SDS011;5616;42.692;23.312;2023-12-29T08:59:24;61.63;;;39.67;;
11123;SDS011;5616;42.692;23.312;2023-12-29T09:01:50;55.97;;;39.83;;
11123;SDS011;5616;42.692;23.312;2023-12-29T09:04:17;61.60;;;40.80;;
11123;SDS011;5616;42.692;23.312;2023-12-29T09:06:44;69.90;;;43.03;;
11123;SDS011;5616;42.692;23.312;2023-12-29T09:09:11;61.50;;;41.30;;
11123;SDS011;5616;42.692;23.312;2023-12-29T09:11:38;65.67;;;42.53;;
11123;SDS011;5616;42.692;23.312;2023-12-29T09:14:05;62.13;;;43.58;;
11123;SDS011;5616;42.692;23.312;2023-12-29T09:16:34;60.30;;;40.90;;
11123;SDS011;5616;42.692;23.312;2023-12-29T09:19:01;61.97;;;41.00;;
11123;SDS011;5616;42.692;23.312;2023-12-29T09:21:28;59.43;;;41.50;;
11123;SDS011;5616;42.692;23.312;2023-12-29T09:23:55;61.47;;;40.60;;
11123;SDS011;5616;42.692;23.312;2023-12-29T09:26:23;64.17;;;41.23;;
11123;SDS011;5616;42.692;23.312;2023-12-29T09:28:50;61.10;;;42.07;;
11123;SDS011;5616;42.692;23.312;2023-12-29T09:31:17;61.70;;;40.37;;
11123;SDS011;5616;42.692;23.312;2023-12-29T09:33:45;56.13;;;40.43;;
11123;SDS011;5616;42.692;23.312;2023-12-29T09:36:12;54.93;;;39.60;;
11123;SDS011;5616;42.692;23.312;2023-12-29T09:38:38;56.43;;;38.90;;
11123;SDS011;5616;42.692;23.312;2023-12-29T09:41:09;62.07;;;41.47;;
11123;SDS011;5616;42.692;23.312;2023-12-29T09:43:40;66.73;;;42.33;;
11123;SDS011;5616;42.692;23.312;2023-12-29T09:46:08;61.60;;;41.73;;
11123;SDS011;5616;42.692;23.312;2023-12-29T09:48:36;60.90;;;40.80;;
11123;SDS011;5616;42.692;23.312;2023-12-29T09:51:04;59.23;;;41.00;;
11123;SDS011;5616;42.692;23.312;2023-12-29T09:53:32;60.30;;;40.37;;
11123;SDS011;5616;42.692;23.312;2023-12-29T09:56:02;59.83;;;38.83;;
11123;SDS011;5616;42.692;23.312;2023-12-29T09:58:31;54.77;;;37.07;;
11123;SDS011;5616;42.692;23.312;2023-12-29T10:01:00;48.20;;;35.17;;
11123;SDS011;5616;42.692;23.312;2023-12-29T10:03:29;52.47;;;36.73;;
11123;SDS011;5616;42.692;23.312;2023-12-29T10:05:56;52.13;;;37.00;;
11123;SDS011;5616;42.692;23.312;2023-12-29T10:08:28;57.57;;;37.27;;
11123;SDS011;5616;42.692;23.312;2023-12-29T10:10:58;51.57;;;37.03;;
11123;SDS011;5616;42.692;23.312;2023-12-29T10:13:27;60.17;;;39.23;;
11123;SDS011;5616;42.692;23.312;2023-12-29T10:15:56;59.97;;;38.47;;
11123;SDS011;5616;42.692;23.312;2023-12-29T10:18:37;54.67;;;38.07;;
11123;SDS011;5616;42.692;23.312;2023-12-29T10:21:12;59.57;;;37.50;;
11123;SDS011;5616;42.692;23.312;2023-12-29T10:23:50;53.57;;;37.97;;
11123;SDS011;5616;42.692;23.312;2023-12-29T10:26:22;54.40;;;37.60;;
11123;SDS011;5616;42.692;23.312;2023-12-29T10:28:50;56.27;;;36.60;;
11123;SDS011;5616;42.692;23.312;2023-12-29T10:31:18;53.90;;;36.63;;
11123;SDS011;5616;42.692;23.312;2023-12-29T10:33:45;56.30;;;36.93;;
11123;SDS011;5616;42.692;23.312;2023-12-29T10:36:15;55.20;;;38.13;;
11123;SDS011;5616;42.692;23.312;2023-12-29T10:38:42;56.87;;;38.60;;
11123;SDS011;5616;42.692;23.312;2023-12-29T10:41:14;51.53;;;37.30;;
11123;SDS011;5616;42.692;23.312;2023-12-29T10:43:43;62.90;;;38.63;;
11123;SDS011;5616;42.692;23.312;2023-12-29T10:46:12;49.40;;;36.87;;
11123;SDS011;5616;42.692;23.312;2023-12-29T10:48:39;50.77;;;37.17;;
11123;SDS011;5616;42.692;23.312;2023-12-29T10:51:06;56.07;;;38.00;;
11123;SDS011;5616;42.692;23.312;2023-12-29T10:53:33;55.60;;;36.77;;
11123;SDS011;5616;42.692;23.312;2023-12-29T10:56:00;57.90;;;38.37;;
11123;SDS011;5616;42.692;23.312;2023-12-29T10:58:28;56.63;;;36.70;;
11123;SDS011;5616;42.692;23.312;2023-12-29T11:00:57;54.70;;;38.37;;
11123;SDS011;5616;42.692;23.312;2023-12-29T11:03:25;57.70;;;37.00;;
11123;SDS011;5616;42.692;23.312;2023-12-29T11:05:53;59.10;;;36.83;;
11123;SDS011;5616;42.692;23.312;2023-12-29T11:08:26;55.93;;;36.73;;
11123;SDS011;5616;42.692;23.312;2023-12-29T11:10:52;49.10;;;35.17;;
11123;SDS011;5616;42.692;23.312;2023-12-29T11:13:20;51.30;;;34.80;;
11123;SDS011;5616;42.692;23.312;2023-12-29T11:15:49;48.57;;;33.97;;
11123;SDS011;5616;42.692;23.312;2023-12-29T11:18:18;51.43;;;35.50;;
11123;SDS011;5616;42.692;23.312;2023-12-29T11:20:45;52.40;;;34.33;;
11123;SDS011;5616;42.692;23.312;2023-12-29T11:23:12;45.80;;;35.53;;
11123;SDS011;5616;42.692;23.312;2023-12-29T11:25:39;49.30;;;34.00;;
11123;SDS011;5616;42.692;23.312;2023-12-29T11:28:08;51.97;;;35.27;;
11123;SDS011;5616;42.692;23.312;2023-12-29T11:30:37;50.83;;;34.13;;
11123;SDS011;5616;42.692;23.312;2023-12-29T11:33:08;49.90;;;34.03;;
11123;SDS011;5616;42.692;23.312;2023-12-29T11:35:42;44.40;;;34.20;;
11123;SDS011;5616;42.692;23.312;2023-12-29T11:41:12;45.47;;;33.57;;
11123;SDS011;5616;42.692;23.312;2023-12-29T11:43:55;46.10;;;33.60;;
11123;SDS011;5616;42.692;23.312;2023-12-29T11:46:38;47.40;;;32.00;;
11123;SDS011;5616;42.692;23.312;2023-12-29T11:49:09;48.00;;;33.13;;
11123;SDS011;5616;42.692;23.312;2023-12-29T11:51:39;39.27;;;31.37;;
11123;SDS011;5616;42.692;23.312;2023-12-29T11:54:08;45.30;;;33.27;;
11123;SDS011;5616;42.692;23.312;2023-12-29T11:56:35;43.93;;;32.40;;
11123;SDS011;5616;42.692;23.312;2023-12-29T11:59:12;44.10;;;33.83;;
11123;SDS011;5616;42.692;23.312;2023-12-29T12:01:43;42.43;;;33.00;;
11123;SDS011;5616;42.692;23.312;2023-12-29T12:07:06;45.90;;;32.70;;
11123;SDS011;5616;42.692;23.312;2023-12-29T12:09:33;47.70;;;36.83;;
11123;SDS011;5616;42.692;23.312;2023-12-29T12:12:01;43.30;;;33.80;;
11123;SDS011;5616;42.692;23.312;2023-12-29T12:14:45;45.57;;;34.90;;
11123;SDS011;5616;42.692;23.312;2023-12-29T12:17:26;49.37;;;33.43;;
11123;SDS011;5616;42.692;23.312;2023-12-29T12:19:57;48.03;;;33.40;;
11123;SDS011;5616;42.692;23.312;2023-12-29T12:22:26;44.60;;;33.87;;
11123;SDS011;5616;42.692;23.312;2023-12-29T12:24:56;47.00;;;33.27;;
11123;SDS011;5616;42.692;23.312;2023-12-29T12:27:24;49.27;;;35.20;;
11123;SDS011;5616;42.692;23.312;2023-12-29T12:29:52;47.57;;;34.03;;
11123;SDS011;5616;42.692;23.312;2023-12-29T12:32:22;46.13;;;34.40;;
11123;SDS011;5616;42.692;23.312;2023-12-29T12:34:49;46.10;;;34.30;;
11123;SDS011;5616;42.692;23.312;2023-12-29T12:37:21;50.17;;;35.23;;
11123;SDS011;5616;42.692;23.312;2023-12-29T12:39:48;49.17;;;34.80;;
11123;SDS011;5616;42.692;23.312;2023-12-29T12:42:15;44.53;;;34.00;;
11123;SDS011;5616;42.692;23.312;2023-12-29T12:44:47;42.57;;;34.03;;
11123;SDS011;5616;42.692;23.312;2023-12-29T12:47:18;48.40;;;34.40;;
11123;SDS011;5616;42.692;23.312;2023-12-29T12:49:50;45.83;;;33.87;;
11123;SDS011;5616;42.692;23.312;2023-12-29T12:52:17;45.27;;;33.53;;
11123;SDS011;5616;42.692;23.312;2023-12-29T12:54:45;47.93;;;33.37;;
11123;SDS011;5616;42.692;23.312;2023-12-29T12:57:13;51.40;;;35.40;;
11123;SDS011;5616;42.692;23.312;2023-12-29T12:59:44;43.80;;;32.97;;
11123;SDS011;5616;42.692;23.312;2023-12-29T13:02:11;48.90;;;33.10;;
11123;SDS011;5616;42.692;23.312;2023-12-29T13:04:39;41.23;;;31.67;;
11123;SDS011;5616;42.692;23.312;2023-12-29T13:07:06;51.70;;;31.93;;
11123;SDS011;5616;42.692;23.312;2023-12-29T13:09:34;43.07;;;30.27;;
11123;SDS011;5616;42.692;23.312;2023-12-29T13:12:10;35.43;;;27.70;;
11123;SDS011;5616;42.692;23.312;2023-12-29T13:14:37;37.07;;;26.93;;
11123;SDS011;5616;42.692;23.312;2023-12-29T13:17:08;36.57;;;26.97;;
11123;SDS011;5616;42.692;23.312;2023-12-29T13:19:36;38.37;;;26.43;;
11123;SDS011;5616;42.692;23.312;2023-12-29T13:22:05;31.17;;;24.83;;
11123;SDS011;5616;42.692;23.312;2023-12-29T13:24:33;34.47;;;23.87;;
11123;SDS011;5616;42.692;23.312;2023-12-29T13:27:05;33.03;;;21.07;;
11123;SDS011;5616;42.692;23.312;2023-12-29T13:29:34;30.67;;;22.37;;
11123;SDS011;5616;42.692;23.312;2023-12-29T13:32:03;32.47;;;19.77;;
11123;SDS011;5616;42.692;23.312;2023-12-29T13:34:35;29.23;;;19.27;;
11123;SDS011;5616;42.692;23.312;2023-12-29T13:37:06;25.03;;;18.70;;
11123;SDS011;5616;42.692;23.312;2023-12-29T13:39:42;29.70;;;19.43;;
11123;SDS011;5616;42.692;23.312;2023-12-29T13:42:12;25.20;;;18.30;;
11123;SDS011;5616;42.692;23.312;2023-12-29T13:44:43;28.03;;;17.23;;
11123;SDS011;5616;42.692;23.312;2023-12-29T13:47:12;27.70;;;17.27;;
11123;SDS011;5616;42.692;23.312;2023-12-29T13:49:40;24.23;;;17.23;;
11123;SDS011;5616;42.692;23.312;2023-12-29T13:52:08;27.87;;;17.77;;
11123;SDS011;5616;42.692;23.312;2023-12-29T13:54:40;26.80;;;17.30;;
11123;SDS011;5616;42.692;23.312;2023-12-29T13:57:07;24.63;;;16.43;;
11123;SDS011;5616;42.692;23.312;2023-12-29T13:59:34;25.13;;;16.37;;
11123;SDS011;5616;42.692;23.312;2023-12-29T14:02:15;23.20;;;15.43;;
11123;SDS011;5616;42.692;23.312;2023-12-29T14:04:46;19.67;;;14.90;;
11123;SDS011;5616;42.692;23.312;2023-12-29T14:07:13;21.77;;;15.87;;
11123;SDS011;5616;42.692;23.312;2023-12-29T14:09:41;22.03;;;15.23;;
11123;SDS011;5616;42.692;23.312;2023-12-29T14:12:08;25.43;;;14.77;;
11123;SDS011;5616;42.692;23.312;2023-12-29T14:14:34;23.92;;;14.98;;
11123;SDS011;5616;42.692;23.312;2023-12-29T14:17:01;20.87;;;12.53;;
11123;SDS011;5616;42.692;23.312;2023-12-29T14:19:35;17.83;;;11.67;;
11123;SDS011;5616;42.692;23.312;2023-12-29T14:22:02;16.43;;;10.90;;
11123;SDS011;5616;42.692;23.312;2023-12-29T14:24:29;19.20;;;11.03;;
11123;SDS011;5616;42.692;23.312;2023-12-29T14:26:56;17.53;;;10.60;;
11123;SDS011;5616;42.692;23.312;2023-12-29T14:29:24;16.23;;;10.20;;
11123;SDS011;5616;42.692;23.312;2023-12-29T14:31:51;16.90;;;10.50;;
11123;SDS011;5616;42.692;23.312;2023-12-29T14:34:19;14.77;;;9.73;;